Randolph, Ohio
Current Conditions -  °F | °C
As of 10:54 PM on Tuesday 21 Oct 2014 (Local Time) from KAKR Reporting Station
Overcast Overcast  
Wind Chill: 44°   Ceiling: 800
Heat Index: 48°   Visibility: 7mi
Dew Point: 45°   Wind: 9mph
Humidity: 89%   Direction: 350°N
Pressure: 30.08"   Gusts: NA
Location:  41.03°N, 81.25°W
Report Text: KAKR 220254Z AUTO 35008KT 7SM OVC008 09/07 A3008 RMK AO2 RAE21 CIG 005V010 SLP189 P0001 60002 T00890072 52016
Loading
Personal Weather Stations






























Interactive Weather Map New forecast layout! Learn more

10-Day Weather Forecast

Advertisements
Track Severe Weather on mobile